createdAt,value
2019-06-10T04:03:53.020Z,16.517334
2019-06-10T04:07:24.085Z,16.577759
2019-06-10T04:10:55.547Z,16.537476
2019-06-10T04:14:25.392Z,16.567688
2019-06-10T04:17:55.421Z,16.567688
2019-06-10T04:21:25.770Z,16.58783
2019-06-10T04:24:55.323Z,16.648254
2019-06-10T04:28:26.137Z,16.668396
2019-06-10T04:31:55.210Z,16.668396
2019-06-10T04:35:25.812Z,16.698608
2019-06-10T04:38:55.093Z,16.688538
2019-06-10T04:42:25.690Z,16.648254
2019-06-10T04:45:54.962Z,16.688538
2019-06-10T04:49:26.378Z,16.668396
2019-06-10T04:52:55.852Z,16.648254
2019-06-10T04:56:27.484Z,16.698608
2019-06-10T04:59:57.711Z,16.698608
2019-06-10T05:03:32.766Z,16.71875
2019-06-10T05:07:01.967Z,16.728821
2019-06-10T05:10:29.815Z,16.71875
2019-06-10T05:13:58.535Z,16.71875
2019-06-10T05:17:29.606Z,16.759033
2019-06-10T05:20:58.737Z,16.789246
2019-06-10T05:24:29.352Z,16.789246
2019-06-10T05:27:58.289Z,16.759033
2019-06-10T05:31:28.858Z,16.71875
2019-06-10T05:34:59.197Z,16.728821
2019-06-10T05:38:30.261Z,16.668396
2019-06-10T05:42:00.048Z,16.668396
2019-06-10T05:45:29.528Z,16.668396
2019-06-10T05:48:59.924Z,16.638184
2019-06-10T05:52:29.088Z,16.58783
2019-06-10T05:56:02.020Z,16.638184
2019-06-10T05:59:29.414Z,16.648254
2019-06-10T06:02:58.711Z,16.668396
2019-06-10T06:06:27.656Z,16.71875
2019-06-10T06:10:02.385Z,16.759033
2019-06-10T06:13:29.540Z,16.799316
2019-06-10T06:17:02.188Z,16.819458
2019-06-10T06:20:29.413Z,16.869812
2019-06-10T06:24:03.822Z,16.940308
2019-06-10T06:27:31.224Z,16.950378
2019-06-10T06:31:03.568Z,17.010803
2019-06-10T06:34:33.604Z,17.061157
2019-06-10T06:38:04.117Z,17.071228
2019-06-10T06:41:34.471Z,17.071228
2019-06-10T06:45:04.019Z,17.09137
2019-06-10T06:48:35.398Z,17.10144
2019-06-10T06:52:06.052Z,17.041016
2019-06-10T06:55:36.486Z,17.020874
2019-06-10T06:59:05.953Z,16.990662
2019-06-10T07:02:36.925Z,17.010803
2019-06-10T07:06:06.854Z,16.97052
2019-06-10T07:09:37.396Z,16.990662
2019-06-10T07:13:07.712Z,16.97052
2019-06-10T07:16:39.486Z,16.97052
2019-06-10T07:20:12.503Z,17.020874
2019-06-10T07:23:45.474Z,17.10144
2019-06-10T07:27:13.079Z,17.242432
2019-06-10T07:30:46.869Z,17.322998
2019-06-10T07:34:15.418Z,17.383423
2019-06-10T07:37:46.020Z,17.433777
2019-06-10T07:41:15.877Z,17.463989
2019-06-10T07:44:45.727Z,17.433777
2019-06-10T07:48:15.549Z,17.383423
2019-06-10T07:51:46.251Z,17.35321
2019-06-10T07:55:14.492Z,17.34314
2019-06-10T07:58:47.382Z,17.34314
2019-06-10T08:02:14.396Z,17.413635
2019-06-10T08:05:44.315Z,17.534485
2019-06-10T08:09:13.297Z,17.675476
2019-06-10T08:12:44.150Z,17.756042
2019-06-10T08:16:13.658Z,17.806396
2019-06-10T08:19:48.792Z,17.836609
2019-06-10T08:23:16.848Z,17.85675
2019-06-10T08:26:45.871Z,17.876892
2019-06-10T08:30:22.457Z,17.927246
2019-06-10T08:33:49.201Z,17.957458
2019-06-10T08:37:17.754Z,18.027954
2019-06-10T08:40:48.722Z,18.108521
2019-06-10T08:44:17.708Z,18.148804
2019-06-10T08:47:47.633Z,18.108521
2019-06-10T08:51:17.607Z,18.078308
2019-06-10T08:54:49.619Z,18.058167
2019-06-10T08:58:18.527Z,18.118591
2019-06-10T09:01:51.260Z,18.148804
2019-06-10T09:05:23.032Z,18.168945
2019-06-10T09:08:53.729Z,18.279724
2019-06-10T09:12:29.854Z,18.430786
2019-06-10T09:16:10.757Z,18.60199
2019-06-10T09:19:33.162Z,18.682556
2019-06-10T09:23:17.226Z,18.712769
2019-06-10T09:26:39.910Z,18.793335
2019-06-10T09:30:13.579Z,18.894043
2019-06-10T09:33:42.678Z,18.974609
2019-06-10T09:37:16.336Z,19.035034
2019-06-10T09:40:48.685Z,18.964539
2019-06-10T09:44:22.736Z,18.934326
2019-06-10T09:47:54.302Z,19.035034
2019-06-10T09:51:24.192Z,19.23645
2019-06-10T09:54:56.649Z,19.417725
2019-06-10T09:58:24.147Z,19.639282
2019-06-10T10:02:02.825Z,19.770203
2019-06-10T10:05:33.770Z,19.840698
2019-06-10T10:09:03.439Z,19.961548
2019-06-10T10:12:32.661Z,20.082397
2019-06-10T10:16:02.530Z,20.293884
2019-06-10T10:19:29.528Z,20.455017
2019-06-10T10:22:57.499Z,20.515442
2019-06-10T10:26:27.503Z,20.575867
2019-06-10T10:29:57.306Z,20.666504
2019-06-10T10:33:29.870Z,20.726929
2019-06-10T10:36:58.402Z,20.827637
2019-06-10T10:40:27.372Z,20.857849
2019-06-10T10:43:58.635Z,20.888062
2019-06-10T10:47:27.763Z,20.948486
2019-06-10T10:50:57.330Z,21.190186
2019-06-10T10:54:33.667Z,21.230469
2019-06-10T10:57:59.286Z,21.341248
2019-06-10T11:01:28.305Z,21.351318
2019-06-10T11:04:57.379Z,21.452026
2019-06-10T11:08:25.302Z,21.603088
2019-06-10T11:11:55.380Z,21.593018
2019-06-10T11:15:25.433Z,21.693726
2019-06-10T11:18:56.302Z,21.693726
2019-06-10T11:22:25.251Z,21.734009
2019-06-10T11:25:56.969Z,21.633301
2019-06-10T11:29:24.153Z,21.431885
2019-06-10T11:32:57.198Z,21.280823
2019-06-10T11:36:26.672Z,21.200256
2019-06-10T11:39:55.035Z,21.099548
2019-06-10T11:43:23.608Z,20.898132
2019-06-10T11:46:54.797Z,20.857849
2019-06-10T11:50:25.552Z,20.767212
2019-06-10T11:53:57.162Z,20.737
2019-06-10T11:57:25.620Z,20.737
2019-06-10T12:00:58.531Z,20.676575
2019-06-10T12:04:29.005Z,20.575867
2019-06-10T12:07:59.739Z,20.475159
2019-06-10T12:11:27.922Z,20.444946
2019-06-10T12:14:59.901Z,20.444946
2019-06-10T12:18:27.894Z,20.414734
2019-06-10T12:22:00.215Z,20.394592
2019-06-10T12:25:36.431Z,20.485229
2019-06-10T12:29:05.542Z,20.4953
2019-06-10T12:32:33.845Z,20.455017
2019-06-10T12:36:06.522Z,20.485229
2019-06-10T12:39:35.157Z,20.485229
2019-06-10T12:43:06.903Z,20.606079
2019-06-10T12:46:34.747Z,20.726929
2019-06-10T12:50:05.488Z,20.676575
2019-06-10T12:53:33.880Z,20.797424
2019-06-10T12:57:05.210Z,20.817566
2019-06-10T13:00:34.477Z,20.948486
2019-06-10T13:04:07.028Z,21.079407
2019-06-10T13:07:36.891Z,21.230469
2019-06-10T13:11:05.858Z,21.351318
2019-06-10T13:14:36.841Z,21.300964
2019-06-10T13:18:08.224Z,21.431885
2019-06-10T13:21:42.559Z,21.814575
2019-06-10T13:25:09.905Z,22.12677
2019-06-10T13:28:38.870Z,22.106628
2019-06-10T13:32:08.815Z,22.177124
2019-06-10T13:35:36.869Z,22.177124
2019-06-10T13:39:09.842Z,22.207336
2019-06-10T13:42:37.805Z,22.267761
2019-06-10T13:46:09.297Z,22.227478
2019-06-10T13:49:36.775Z,22.398682
2019-06-10T13:53:06.953Z,22.277832
2019-06-10T13:56:46.532Z,22.217407
2019-06-10T14:00:12.292Z,22.187195
2019-06-10T14:03:42.983Z,22.187195
2019-06-10T14:07:14.922Z,22.156982
2019-06-10T14:10:42.905Z,22.177124
2019-06-10T14:14:12.090Z,22.479248
2019-06-10T14:17:43.590Z,22.731018
2019-06-10T14:21:17.386Z,23.264771
2019-06-10T14:24:44.491Z,23.657532
2019-06-10T14:28:25.839Z,23.848877
2019-06-10T14:31:48.517Z,23.808594
2019-06-10T14:35:17.718Z,24.594116
2019-06-10T14:38:49.308Z,25.087585
2019-06-10T14:42:17.262Z,25.460205
2019-06-10T14:45:46.274Z,25.450134
2019-06-10T14:49:16.967Z,25.52063
2019-06-10T14:52:47.362Z,25.661621
2019-06-10T14:56:19.622Z,25.832825
2019-06-10T14:59:49.314Z,25.852966
2019-06-10T15:03:20.322Z,25.711975
2019-06-10T15:06:50.338Z,25.591125
2019-06-10T15:10:23.264Z,25.450134
2019-06-10T15:13:52.428Z,25.299072
2019-06-10T15:17:22.199Z,25.278931
2019-06-10T15:20:53.366Z,24.996948
2019-06-10T15:24:23.817Z,24.563904
2019-06-10T15:27:52.612Z,24.080505
2019-06-10T15:31:22.229Z,23.778381
2019-06-10T15:34:52.450Z,23.536682
2019-06-10T15:38:22.868Z,23.38562
2019-06-10T15:41:52.166Z,23.284912
2019-06-10T15:45:20.792Z,23.174133
2019-06-10T15:48:48.275Z,23.083496
2019-06-10T15:52:20.008Z,23.033142
2019-06-10T15:56:09.984Z,22.992859
2019-06-10T15:59:25.281Z,22.952576
2019-06-10T16:03:02.458Z,22.912292
2019-06-10T16:06:29.750Z,22.811584
2019-06-10T16:09:58.735Z,22.710876
2019-06-10T16:13:27.794Z,22.620239
2019-06-10T16:16:56.762Z,22.529602
2019-06-10T16:20:25.745Z,22.50946
2019-06-10T16:23:54.764Z,22.489319
2019-06-10T16:27:40.519Z,22.590027
2019-06-10T16:30:58.769Z,22.590027
2019-06-10T16:34:29.133Z,22.549744
2019-06-10T16:37:57.676Z,22.479248
2019-06-10T16:41:27.766Z,22.398682
2019-06-10T16:44:55.561Z,22.277832
2019-06-10T16:48:25.618Z,22.217407
2019-06-10T16:51:55.458Z,22.146912
2019-06-10T16:55:25.719Z,22.066345
2019-06-10T16:58:55.338Z,22.00592
2019-06-10T17:02:25.403Z,21.955566
2019-06-10T17:05:55.279Z,21.955566
2019-06-10T17:09:26.105Z,21.895142
2019-06-10T17:12:56.154Z,21.875
2019-06-10T17:16:26.351Z,21.75415
2019-06-10T17:19:55.029Z,21.582947
2019-06-10T17:23:26.825Z,21.411743
2019-06-10T17:26:57.919Z,21.280823
2019-06-10T17:30:28.389Z,21.049194
2019-06-10T17:33:57.843Z,20.857849
2019-06-10T17:37:26.787Z,20.696716
2019-06-10T17:40:56.745Z,20.606079
2019-06-10T17:44:27.749Z,20.515442
2019-06-10T17:47:57.965Z,20.455017
2019-06-10T17:51:29.416Z,20.394592
2019-06-10T17:54:59.837Z,20.263672
2019-06-10T17:58:38.310Z,20.173035
2019-06-10T18:02:04.113Z,20.042114
2019-06-10T18:05:33.570Z,19.901123
2019-06-10T18:09:03.828Z,19.73999
2019-06-10T18:12:32.922Z,19.639282
2019-06-10T18:16:02.705Z,19.598999
2019-06-10T18:19:31.619Z,19.558716
2019-06-10T18:23:02.726Z,19.528503
2019-06-10T18:26:30.871Z,19.417725
2019-06-10T18:30:10.401Z,19.377441
2019-06-10T18:33:37.859Z,19.23645
2019-06-10T18:37:06.209Z,19.155884
2019-06-10T18:40:35.637Z,19.045105
2019-06-10T18:44:18.719Z,18.974609
2019-06-10T18:47:42.252Z,18.914185
2019-06-10T18:51:12.283Z,18.823547
2019-06-10T18:54:40.026Z,18.783264
2019-06-10T18:58:08.841Z,18.742981
2019-06-10T19:01:36.850Z,18.702698
2019-06-10T19:05:05.853Z,18.642273
2019-06-10T19:08:35.988Z,18.632202
2019-06-10T19:12:07.717Z,18.60199
2019-06-10T19:15:37.761Z,18.561707
2019-06-10T19:19:07.621Z,18.511353
2019-06-10T19:22:37.856Z,18.491211
2019-06-10T19:26:08.634Z,18.430786
2019-06-10T19:29:42.851Z,18.380432
2019-06-10T19:33:12.745Z,18.330078
2019-06-10T19:36:41.772Z,18.299866
2019-06-10T19:40:12.359Z,18.259583
2019-06-10T19:43:41.428Z,18.269653
2019-06-10T19:47:12.844Z,18.199158
2019-06-10T19:50:43.973Z,18.128662
2019-06-10T19:54:14.760Z,18.088379
2019-06-10T19:57:43.672Z,18.058167
2019-06-10T20:01:11.837Z,18.048096
2019-06-10T20:04:42.423Z,17.987671
2019-06-10T20:08:12.095Z,17.967529
2019-06-10T20:11:40.965Z,17.957458
2019-06-10T20:15:13.172Z,17.907104
2019-06-10T20:18:42.570Z,17.876892
2019-06-10T20:22:13.659Z,17.927246
2019-06-10T20:25:46.742Z,17.876892
2019-06-10T20:29:15.647Z,17.897034
2019-06-10T20:32:46.356Z,17.927246
2019-06-10T20:36:23.103Z,17.897034
2019-06-10T20:39:50.576Z,17.866821
2019-06-10T20:43:19.350Z,17.786255
2019-06-10T20:46:49.275Z,17.786255
2019-06-10T20:50:18.273Z,17.786255
2019-06-10T20:53:47.604Z,17.756042
2019-06-10T20:57:16.176Z,17.705688
2019-06-10T21:00:48.658Z,17.675476
2019-06-10T21:04:19.014Z,17.574768
2019-06-10T21:07:48.473Z,17.504272
2019-06-10T21:11:16.937Z,17.494202
2019-06-10T21:14:47.181Z,17.453918
2019-06-10T21:18:16.815Z,17.383423
2019-06-10T21:21:48.506Z,17.35321
2019-06-10T21:25:18.886Z,17.34314
2019-06-10T21:28:50.065Z,17.322998
2019-06-10T21:32:19.846Z,17.322998
2019-06-10T21:35:48.904Z,17.34314
2019-06-10T21:39:18.713Z,17.34314
2019-06-10T21:42:47.875Z,17.312927
2019-06-10T21:46:18.686Z,17.302856
2019-06-10T21:49:48.714Z,17.282715
2019-06-10T21:53:19.644Z,17.252502
2019-06-10T21:56:48.894Z,17.202148
